createdAt,value
2023-04-13T00:00:37.026Z,9.87
2023-04-13T00:03:04.458Z,9.90
2023-04-13T00:05:34.257Z,9.81
2023-04-13T00:08:03.464Z,9.76
2023-04-13T00:10:37.100Z,9.85
2023-04-13T00:13:05.052Z,9.95
2023-04-13T00:15:32.138Z,9.87
2023-04-13T00:17:58.724Z,9.86
2023-04-13T00:20:25.230Z,9.77
2023-04-13T00:22:52.071Z,9.45
2023-04-13T00:25:18.562Z,9.43
2023-04-13T00:27:45.170Z,9.53
2023-04-13T00:30:16.256Z,9.23
2023-04-13T00:32:44.337Z,9.23
2023-04-13T00:35:12.775Z,9.35
2023-04-13T00:37:39.670Z,9.57
2023-04-13T00:40:08.486Z,9.75
2023-04-13T00:42:36.187Z,9.51
2023-04-13T00:45:03.027Z,9.77
2023-04-13T00:47:33.938Z,9.48
2023-04-13T00:50:01.649Z,9.56
2023-04-13T00:52:29.019Z,9.74
2023-04-13T00:54:57.835Z,9.81
2023-04-13T00:57:25.371Z,9.80
2023-04-13T00:59:52.778Z,10.03
2023-04-13T01:02:26.291Z,10.04
2023-04-13T01:04:54.873Z,10.07
2023-04-13T01:07:47.301Z,10.08
2023-04-13T01:10:19.491Z,10.00
2023-04-13T01:12:54.905Z,10.05
2023-04-13T01:15:23.178Z,10.05
2023-04-13T01:18:07.160Z,10.11
2023-04-13T01:20:37.053Z,9.96
2023-04-13T01:23:09.384Z,10.06
2023-04-13T01:25:57.737Z,9.97
2023-04-13T01:28:26.225Z,9.93
2023-04-13T01:30:53.942Z,9.78
2023-04-13T01:33:21.544Z,9.75
2023-04-13T01:35:50.154Z,9.69
2023-04-13T01:38:24.444Z,9.91
2023-04-13T01:40:51.762Z,9.88
2023-04-13T01:43:20.339Z,9.79
2023-04-13T01:45:53.584Z,9.98
2023-04-13T01:48:27.218Z,10.15
2023-04-13T01:51:03.878Z,9.95
2023-04-13T01:53:59.426Z,10.05
2023-04-13T01:56:26.675Z,10.08
2023-04-13T01:58:58.688Z,10.03
2023-04-13T02:01:25.871Z,10.17
2023-04-13T02:03:53.382Z,10.10
2023-04-13T02:06:20.748Z,10.21
2023-04-13T02:08:47.241Z,10.05
2023-04-13T02:11:13.893Z,10.15
2023-04-13T02:13:40.326Z,10.13
2023-04-13T02:16:07.316Z,10.08
2023-04-13T02:18:33.816Z,10.09
2023-04-13T02:21:07.815Z,10.10
2023-04-13T02:23:35.336Z,10.14
2023-04-13T02:26:02.759Z,10.04
2023-04-13T02:28:30.050Z,9.98
2023-04-13T02:30:57.272Z,9.82
2023-04-13T02:33:24.099Z,10.12
2023-04-13T02:35:50.934Z,10.17
2023-04-13T02:38:17.824Z,10.02
2023-04-13T02:40:44.319Z,10.09
2023-04-13T02:43:10.788Z,10.09
2023-04-13T02:45:39.196Z,10.20
2023-04-13T02:48:06.785Z,10.26
2023-04-13T02:50:33.198Z,10.12
2023-04-13T02:52:59.595Z,10.00
2023-04-13T02:55:26.543Z,9.94
2023-04-13T02:57:54.116Z,10.16
2023-04-13T03:00:21.094Z,9.89
2023-04-13T03:02:48.049Z,9.75
2023-04-13T03:05:14.681Z,9.92
2023-04-13T03:07:41.154Z,9.94
2023-04-13T03:10:08.862Z,9.86
2023-04-13T03:12:35.337Z,9.85
2023-04-13T03:15:04.918Z,9.97
2023-04-13T03:17:31.365Z,9.86
2023-04-13T03:19:58.419Z,9.92
2023-04-13T03:22:26.050Z,9.88
2023-04-13T03:24:52.534Z,9.76
2023-04-13T03:27:21.428Z,9.63
2023-04-13T03:29:47.836Z,9.72
2023-04-13T03:32:14.239Z,9.82
2023-04-13T03:34:44.067Z,9.78
2023-04-13T03:37:11.323Z,9.65
2023-04-13T03:39:39.259Z,9.71
2023-04-13T03:42:05.822Z,9.25
2023-04-13T03:44:32.973Z,9.34
2023-04-13T03:46:59.464Z,9.10
2023-04-13T03:49:25.935Z,8.96
2023-04-13T03:51:52.401Z,9.32
2023-04-13T03:54:18.796Z,9.16
2023-04-13T03:56:45.539Z,9.13
2023-04-13T03:59:11.953Z,9.41
2023-04-13T04:01:38.379Z,9.36
2023-04-13T04:04:05.013Z,9.37
2023-04-13T04:06:31.782Z,9.30
2023-04-13T04:08:58.288Z,9.22
2023-04-13T04:11:24.784Z,9.12
2023-04-13T04:13:51.159Z,9.46
2023-04-13T04:16:17.664Z,9.49
2023-04-13T04:18:44.285Z,9.42
2023-04-13T04:21:13.167Z,9.35
2023-04-13T04:23:39.993Z,9.47
2023-04-13T04:26:07.420Z,9.58
2023-04-13T04:28:39.927Z,9.72
2023-04-13T04:31:10.393Z,9.70
2023-04-13T04:33:38.643Z,9.68
2023-04-13T04:36:10.076Z,9.71
2023-04-13T04:38:36.634Z,9.81
2023-04-13T04:41:03.070Z,9.98
2023-04-13T04:43:30.331Z,9.72
2023-04-13T04:45:59.453Z,9.93
2023-04-13T04:48:27.045Z,10.24
2023-04-13T04:50:54.204Z,10.55
2023-04-13T04:53:21.193Z,10.22
2023-04-13T04:55:47.731Z,10.32
2023-04-13T04:58:14.246Z,10.27
2023-04-13T05:00:40.679Z,10.37
2023-04-13T05:03:08.268Z,10.43
2023-04-13T05:05:35.338Z,10.06
2023-04-13T05:08:01.976Z,10.28
2023-04-13T05:10:29.567Z,10.45
2023-04-13T05:12:56.750Z,10.74
2023-04-13T05:15:23.361Z,10.41
2023-04-13T05:17:50.913Z,10.55
2023-04-13T05:20:17.915Z,10.13
2023-04-13T05:22:44.342Z,10.97
2023-04-13T05:25:11.096Z,11.00
2023-04-13T05:27:38.069Z,11.09
2023-04-13T05:30:05.947Z,11.24
2023-04-13T05:32:35.679Z,11.57
2023-04-13T05:35:02.484Z,11.36
2023-04-13T05:37:28.939Z,11.70
2023-04-13T05:39:55.401Z,11.65
2023-04-13T05:42:21.834Z,11.92
2023-04-13T05:44:48.320Z,11.83
2023-04-13T05:47:14.762Z,11.82
2023-04-13T05:49:41.399Z,11.95
2023-04-13T05:52:08.161Z,11.90
2023-04-13T05:54:34.635Z,11.98
2023-04-13T05:57:01.029Z,12.27
2023-04-13T05:59:27.472Z,12.25
2023-04-13T06:01:54.103Z,11.93
2023-04-13T06:04:21.020Z,12.13
2023-04-13T06:06:47.926Z,11.96
2023-04-13T06:09:14.741Z,11.88
2023-04-13T06:11:41.711Z,12.39
2023-04-13T06:14:08.119Z,12.32
2023-04-13T06:16:34.622Z,11.91
2023-04-13T06:19:01.310Z,12.13
2023-04-13T06:21:30.094Z,12.36
2023-04-13T06:23:57.016Z,12.50
2023-04-13T06:26:23.486Z,12.98
2023-04-13T06:28:50.003Z,12.88
2023-04-13T06:31:16.644Z,13.06
2023-04-13T06:33:43.347Z,13.32
2023-04-13T06:36:10.403Z,12.86
2023-04-13T06:38:36.840Z,13.42
2023-04-13T06:41:04.570Z,13.98
2023-04-13T06:43:31.485Z,14.39
2023-04-13T06:46:02.260Z,14.76
2023-04-13T06:48:30.667Z,13.60
2023-04-13T06:50:57.478Z,13.82
2023-04-13T06:53:23.938Z,13.51
2023-04-13T06:55:50.948Z,13.68
2023-04-13T06:58:17.393Z,13.65
2023-04-13T07:00:43.969Z,13.33
2023-04-13T07:03:10.680Z,14.01
2023-04-13T07:05:38.782Z,12.98
2023-04-13T07:08:06.367Z,13.47
2023-04-13T07:10:32.841Z,13.62
2023-04-13T07:12:59.234Z,13.43
2023-04-13T07:15:25.691Z,13.63
2023-04-13T07:17:52.457Z,14.00
2023-04-13T07:20:19.140Z,13.29
2023-04-13T07:22:45.853Z,13.72
2023-04-13T07:25:12.387Z,13.12
2023-04-13T07:27:38.827Z,13.26
2023-04-13T07:30:06.574Z,13.71
2023-04-13T07:32:33.009Z,12.39
2023-04-13T07:35:01.950Z,12.88
2023-04-13T07:37:29.622Z,12.99
2023-04-13T07:39:56.078Z,13.49
2023-04-13T07:42:22.545Z,13.51
2023-04-13T07:44:48.965Z,13.40
2023-04-13T07:47:16.634Z,13.45
2023-04-13T07:49:43.075Z,12.90
2023-04-13T07:52:09.510Z,13.24
2023-04-13T07:54:36.377Z,14.37
2023-04-13T07:57:03.833Z,14.45
2023-04-13T07:59:30.464Z,14.25
2023-04-13T08:01:56.916Z,13.90
2023-04-13T08:04:23.669Z,14.38
2023-04-13T08:06:50.354Z,14.46
2023-04-13T08:09:16.743Z,14.41
2023-04-13T08:11:43.291Z,13.63
2023-04-13T08:14:11.632Z,13.76
2023-04-13T08:16:38.300Z,13.49
2023-04-13T08:19:04.831Z,14.29
2023-04-13T08:21:32.682Z,14.51
2023-04-13T08:23:59.172Z,13.67
2023-04-13T08:26:26.289Z,14.16
2023-04-13T08:28:55.884Z,14.08
2023-04-13T08:31:22.520Z,13.55
2023-04-13T08:33:49.008Z,13.69
2023-04-13T08:36:17.376Z,14.08
2023-04-13T08:38:43.865Z,14.84
2023-04-13T08:41:10.754Z,14.05
2023-04-13T08:43:38.325Z,13.94
2023-04-13T08:46:05.831Z,15.23
2023-04-13T08:48:42.689Z,16.05
2023-04-13T08:51:18.133Z,15.44
2023-04-13T08:53:44.586Z,15.92
2023-04-13T08:56:14.584Z,15.94
2023-04-13T08:58:42.907Z,16.16
2023-04-13T09:01:14.039Z,15.31
2023-04-13T09:03:50.956Z,15.95
2023-04-13T09:06:34.792Z,16.19
2023-04-13T09:09:05.935Z,15.70
2023-04-13T09:11:32.705Z,15.62
2023-04-13T09:13:59.337Z,15.73
2023-04-13T09:16:26.389Z,16.32
2023-04-13T09:18:58.072Z,14.74
2023-04-13T09:21:37.370Z,16.25
2023-04-13T09:24:05.951Z,16.40
2023-04-13T09:26:43.132Z,16.00
2023-04-13T09:29:20.491Z,15.25
2023-04-13T09:31:48.197Z,15.66
2023-04-13T09:34:25.842Z,15.41
2023-04-13T09:36:54.852Z,16.05
2023-04-13T09:39:27.544Z,15.87
2023-04-13T09:41:55.076Z,16.04
2023-04-13T09:44:24.620Z,15.85
2023-04-13T09:47:02.297Z,15.20
2023-04-13T09:49:43.085Z,15.43
2023-04-13T09:52:23.469Z,15.60
2023-04-13T09:54:51.963Z,15.94
2023-04-13T09:57:29.287Z,15.69
2023-04-13T09:59:57.822Z,15.85
2023-04-13T10:02:25.971Z,15.55
2023-04-13T10:04:52.995Z,15.82
2023-04-13T10:07:21.024Z,14.74
2023-04-13T10:09:47.796Z,15.44
2023-04-13T10:12:16.683Z,14.54
2023-04-13T10:14:48.799Z,15.05
2023-04-13T10:17:37.413Z,15.72
2023-04-13T10:20:13.709Z,15.47
2023-04-13T10:22:43.982Z,15.81
2023-04-13T10:25:32.262Z,16.42
2023-04-13T10:28:00.666Z,16.47
2023-04-13T10:30:28.001Z,16.85
2023-04-13T10:33:09.604Z,16.55
2023-04-13T10:35:37.369Z,16.55
2023-04-13T10:38:05.047Z,16.49
2023-04-13T10:40:45.497Z,16.42
2023-04-13T10:43:12.527Z,16.24
2023-04-13T10:45:39.066Z,17.03
2023-04-13T10:48:06.453Z,17.35
2023-04-13T10:50:32.991Z,16.42
2023-04-13T10:53:05.006Z,16.25
2023-04-13T10:55:32.617Z,16.35
2023-04-13T10:58:01.153Z,15.42
2023-04-13T11:00:44.534Z,16.60
2023-04-13T11:03:17.174Z,15.24
2023-04-13T11:05:48.367Z,16.63
2023-04-13T11:08:21.446Z,16.41
2023-04-13T11:10:55.928Z,15.57
2023-04-13T11:13:25.451Z,15.87
2023-04-13T11:15:52.278Z,16.37
2023-04-13T11:18:26.524Z,15.62
2023-04-13T11:20:53.748Z,15.32
2023-04-13T11:23:23.453Z,15.33
2023-04-13T11:25:59.343Z,15.92
2023-04-13T11:28:37.467Z,16.39
2023-04-13T11:31:05.169Z,16.04
2023-04-13T11:33:33.431Z,15.95
2023-04-13T11:36:00.859Z,15.67
2023-04-13T11:38:28.856Z,16.36
2023-04-13T11:41:15.030Z,16.69
2023-04-13T11:43:46.046Z,16.46
2023-04-13T11:46:13.744Z,16.25
2023-04-13T11:48:40.552Z,16.15
2023-04-13T11:51:07.530Z,16.24
2023-04-13T11:53:36.348Z,16.51
2023-04-13T11:56:02.935Z,16.74
2023-04-13T11:58:29.431Z,16.15
2023-04-13T12:00:59.873Z,15.88
2023-04-13T12:03:47.043Z,16.51
2023-04-13T12:06:20.690Z,16.74
2023-04-13T12:08:51.711Z,17.32
2023-04-13T12:11:41.210Z,16.84
2023-04-13T12:14:45.994Z,16.65
2023-04-13T12:17:34.930Z,17.08
2023-04-13T12:20:00.610Z,16.24
2023-04-13T12:22:50.809Z,16.38
2023-04-13T12:25:24.013Z,16.35
2023-04-13T12:27:52.360Z,17.11
2023-04-13T12:30:21.225Z,17.18
2023-04-13T12:32:51.581Z,16.61
2023-04-13T12:35:21.558Z,16.65
2023-04-13T12:37:49.184Z,17.19
2023-04-13T12:40:18.474Z,17.24
2023-04-13T12:42:49.051Z,15.81
2023-04-13T12:45:16.697Z,15.78
2023-04-13T12:47:43.305Z,17.35
2023-04-13T12:50:11.382Z,17.20
2023-04-13T12:52:41.463Z,16.19
2023-04-13T12:55:08.613Z,16.36
2023-04-13T12:57:35.251Z,17.10
2023-04-13T13:00:01.711Z,16.93
2023-04-13T13:02:31.013Z,17.29
2023-04-13T13:04:59.276Z,17.41
2023-04-13T13:07:27.542Z,16.61
2023-04-13T13:09:54.079Z,16.90
2023-04-13T13:12:20.592Z,16.91
2023-04-13T13:14:47.088Z,16.06
2023-04-13T13:17:13.634Z,16.50
2023-04-13T13:19:40.072Z,17.29
2023-04-13T13:22:06.516Z,16.83
2023-04-13T13:24:33.141Z,16.88
2023-04-13T13:29:33.206Z,17.01
2023-04-13T13:32:00.498Z,17.70
2023-04-13T13:34:27.158Z,17.39
2023-04-13T13:36:53.594Z,17.68
2023-04-13T13:39:22.358Z,17.07
2023-04-13T13:41:49.380Z,17.37
2023-04-13T13:44:16.764Z,16.40
2023-04-13T13:46:43.649Z,16.36
2023-04-13T13:49:11.685Z,16.94
2023-04-13T13:51:38.194Z,15.93
2023-04-13T13:54:04.824Z,15.94
2023-04-13T13:56:31.261Z,16.71
2023-04-13T13:58:58.747Z,16.25
2023-04-13T14:01:25.521Z,17.16
2023-04-13T14:03:52.111Z,16.71
2023-04-13T14:06:18.559Z,16.59
2023-04-13T14:08:45.045Z,16.43
2023-04-13T14:11:12.563Z,16.70
2023-04-13T14:13:39.046Z,16.84
2023-04-13T14:16:06.102Z,16.52
2023-04-13T14:18:32.703Z,17.58
2023-04-13T14:20:59.278Z,17.90
2023-04-13T14:23:25.770Z,17.25
2023-04-13T14:25:52.482Z,17.12
2023-04-13T14:28:18.943Z,17.04
2023-04-13T14:30:45.572Z,17.25
2023-04-13T14:33:14.643Z,17.28
2023-04-13T14:35:41.288Z,17.59
2023-04-13T14:38:08.369Z,16.60
2023-04-13T14:40:35.924Z,17.02
2023-04-13T14:43:02.422Z,17.87
2023-04-13T14:45:28.943Z,16.95
2023-04-13T14:47:55.659Z,16.78
2023-04-13T14:50:22.485Z,16.05
2023-04-13T14:52:50.116Z,17.37
2023-04-13T14:55:17.699Z,17.36
2023-04-13T14:57:45.184Z,17.40
2023-04-13T15:00:18.058Z,17.48
2023-04-13T15:02:44.652Z,16.95
2023-04-13T15:05:11.306Z,16.29
2023-04-13T15:07:38.029Z,17.31
2023-04-13T15:10:05.523Z,18.09
2023-04-13T15:12:32.252Z,18.17
2023-04-13T15:14:58.646Z,18.68
2023-04-13T15:17:26.355Z,17.09
2023-04-13T15:19:52.881Z,17.20
2023-04-13T15:22:19.374Z,17.11
2023-04-13T15:24:45.794Z,16.93
2023-04-13T15:27:12.391Z,16.92
2023-04-13T15:29:38.854Z,16.08
2023-04-13T15:32:05.589Z,16.30
2023-04-13T15:34:32.068Z,17.70
2023-04-13T15:36:59.351Z,17.40
2023-04-13T15:39:25.953Z,17.56
2023-04-13T15:41:54.154Z,17.13
2023-04-13T15:44:21.251Z,17.65
2023-04-13T15:46:48.058Z,17.73
2023-04-13T15:49:15.415Z,16.50
2023-04-13T15:51:41.854Z,17.16
2023-04-13T15:54:08.314Z,17.27
2023-04-13T15:56:34.692Z,17.42
2023-04-13T15:59:01.548Z,16.71
2023-04-13T16:01:28.351Z,16.94
2023-04-13T16:03:55.873Z,16.07
2023-04-13T16:06:22.694Z,16.84
2023-04-13T16:08:49.358Z,17.28
2023-04-13T16:11:15.810Z,17.46
2023-04-13T16:13:49.351Z,17.11
2023-04-13T16:16:18.077Z,15.66
2023-04-13T16:18:44.548Z,16.98
2023-04-13T16:21:12.296Z,16.31
2023-04-13T16:23:38.713Z,16.71
2023-04-13T16:26:06.267Z,16.55
2023-04-13T16:28:32.728Z,16.22
2023-04-13T16:30:59.447Z,16.79
2023-04-13T16:33:25.997Z,17.13
2023-04-13T16:35:52.530Z,16.76
2023-04-13T16:38:18.983Z,16.38
2023-04-13T16:40:45.629Z,16.42
2023-04-13T16:43:12.512Z,16.29
2023-04-13T16:45:39.010Z,15.91
2023-04-13T16:48:05.825Z,16.22
2023-04-13T16:50:32.746Z,16.66
2023-04-13T16:52:59.561Z,16.17
2023-04-13T16:55:28.263Z,16.81
2023-04-13T16:57:55.152Z,16.56
2023-04-13T17:00:22.021Z,16.54
2023-04-13T17:02:48.777Z,16.22
2023-04-13T17:05:16.134Z,16.39
2023-04-13T17:07:44.101Z,16.46
2023-04-13T17:10:12.845Z,16.92
2023-04-13T17:12:39.610Z,17.02
2023-04-13T17:15:06.706Z,16.61
2023-04-13T17:17:34.631Z,17.02
2023-04-13T17:20:01.736Z,16.85
2023-04-13T17:22:28.317Z,17.35
2023-04-13T17:24:55.773Z,16.30
2023-04-13T17:27:22.384Z,17.17
2023-04-13T17:29:49.739Z,17.32
2023-04-13T17:32:16.569Z,16.74
2023-04-13T17:34:44.566Z,17.05
2023-04-13T17:37:11.711Z,17.06
2023-04-13T17:39:42.071Z,17.07
2023-04-13T17:42:09.399Z,16.91
2023-04-13T17:44:36.021Z,17.22
2023-04-13T17:47:02.513Z,17.19
2023-04-13T17:49:29.136Z,17.08
2023-04-13T17:51:55.658Z,16.99
2023-04-13T17:54:22.110Z,16.99
2023-04-13T17:56:48.535Z,16.86
2023-04-13T17:59:15.823Z,16.71
2023-04-13T18:01:43.467Z,16.79
2023-04-13T18:04:14.580Z,16.80
2023-04-13T18:06:41.460Z,16.62
2023-04-13T18:09:08.872Z,16.60
2023-04-13T18:11:35.861Z,16.58
2023-04-13T18:14:02.933Z,16.35
2023-04-13T18:16:31.665Z,16.54
2023-04-13T18:19:01.738Z,16.43
2023-04-13T18:21:28.677Z,16.58
2023-04-13T18:23:55.458Z,16.31
2023-04-13T18:26:22.633Z,16.40
2023-04-13T18:28:49.272Z,16.30
2023-04-13T18:31:15.762Z,16.11
2023-04-13T18:33:42.271Z,16.16
2023-04-13T18:36:08.743Z,16.15
2023-04-13T18:38:35.387Z,15.89
2023-04-13T18:41:01.927Z,16.05
2023-04-13T18:43:28.364Z,15.78
2023-04-13T18:45:55.078Z,15.77
2023-04-13T18:48:21.507Z,15.75
2023-04-13T18:50:48.383Z,15.61
2023-04-13T18:53:14.825Z,15.16
2023-04-13T18:55:41.244Z,14.90
2023-04-13T18:58:07.767Z,15.41
2023-04-13T19:00:34.245Z,15.34
2023-04-13T19:03:01.165Z,15.46
2023-04-13T19:05:27.907Z,15.33
2023-04-13T19:07:59.144Z,15.54
2023-04-13T19:10:26.441Z,15.48
2023-04-13T19:12:52.903Z,15.27
2023-04-13T19:15:19.787Z,15.03
2023-04-13T19:17:47.299Z,15.17
2023-04-13T19:20:14.443Z,14.97
2023-04-13T19:22:41.012Z,15.16
2023-04-13T19:25:13.970Z,15.21
2023-04-13T19:27:50.172Z,15.07
2023-04-13T19:30:18.254Z,15.14
2023-04-13T19:32:46.836Z,15.25
2023-04-13T19:35:13.899Z,14.28
2023-04-13T19:37:41.082Z,14.95
2023-04-13T19:40:13.536Z,15.29
2023-04-13T19:42:41.645Z,14.95
2023-04-13T19:45:09.546Z,13.50
2023-04-13T19:47:40.459Z,14.18
2023-04-13T19:50:08.996Z,13.58
2023-04-13T19:52:35.841Z,14.57
2023-04-13T19:55:02.267Z,15.09
2023-04-13T19:57:29.232Z,15.13
2023-04-13T19:59:55.855Z,14.55
2023-04-13T20:02:22.536Z,14.77
2023-04-13T20:04:50.006Z,14.93
2023-04-13T20:07:17.908Z,14.95
2023-04-13T20:09:44.861Z,14.02
2023-04-13T20:12:12.096Z,14.58
2023-04-13T20:14:42.067Z,14.60
2023-04-13T20:17:09.235Z,14.28
2023-04-13T20:19:36.418Z,14.61
2023-04-13T20:22:04.407Z,14.92
2023-04-13T20:24:31.530Z,14.67
2023-04-13T20:26:58.691Z,14.75
2023-04-13T20:29:26.968Z,14.61
2023-04-13T20:31:54.116Z,14.78
2023-04-13T20:34:20.949Z,14.91
2023-04-13T20:36:47.492Z,14.52
2023-04-13T20:39:14.033Z,14.06
2023-04-13T20:41:40.514Z,14.32
2023-04-13T20:44:09.891Z,14.01
2023-04-13T20:46:37.517Z,14.08
2023-04-13T20:49:04.954Z,13.48
2023-04-13T20:51:33.391Z,13.55
2023-04-13T20:54:01.642Z,13.25
2023-04-13T20:56:28.387Z,13.82
2023-04-13T20:58:57.164Z,14.11
2023-04-13T21:01:26.861Z,13.90
2023-04-13T21:03:53.674Z,12.88
2023-04-13T21:06:22.501Z,14.15
2023-04-13T21:08:48.945Z,13.94
2023-04-13T21:11:15.369Z,14.41
2023-04-13T21:13:41.863Z,14.01
2023-04-13T21:16:08.985Z,14.30
2023-04-13T21:18:36.672Z,14.42
2023-04-13T21:21:05.200Z,14.19
2023-04-13T21:23:31.646Z,14.26
2023-04-13T21:25:58.015Z,13.58
2023-04-13T21:28:24.452Z,14.02
2023-04-13T21:30:50.862Z,13.96
2023-04-13T21:33:17.319Z,13.56
2023-04-13T21:35:43.737Z,13.37
2023-04-13T21:38:10.220Z,13.76
2023-04-13T21:40:36.717Z,13.89
2023-04-13T21:43:03.321Z,13.02
2023-04-13T21:45:29.753Z,13.69
2023-04-13T21:47:56.349Z,13.82
2023-04-13T21:50:22.971Z,13.42
2023-04-13T21:52:49.616Z,12.39
2023-04-13T21:55:19.535Z,12.76
2023-04-13T21:57:46.965Z,13.29
2023-04-13T22:00:14.825Z,13.19
2023-04-13T22:02:41.736Z,13.41
2023-04-13T22:05:09.917Z,13.24
2023-04-13T22:07:42.496Z,13.33
2023-04-13T22:10:10.817Z,13.35
2023-04-13T22:12:37.333Z,13.27
2023-04-13T22:15:04.403Z,13.12
2023-04-13T22:17:31.034Z,12.84
2023-04-13T22:19:57.586Z,12.31
2023-04-13T22:22:24.007Z,12.87
2023-04-13T22:24:52.399Z,13.00
2023-04-13T22:27:18.909Z,12.95
2023-04-13T22:29:45.584Z,12.99
2023-04-13T22:32:11.983Z,12.92
2023-04-13T22:34:38.499Z,12.97
2023-04-13T22:37:06.866Z,12.90
2023-04-13T22:39:33.308Z,12.90
2023-04-13T22:41:59.919Z,12.83
2023-04-13T22:44:32.312Z,12.86
2023-04-13T22:46:58.822Z,12.85
2023-04-13T22:49:25.434Z,12.79
2023-04-13T22:51:51.817Z,12.83
2023-04-13T22:54:18.279Z,12.81
2023-04-13T22:56:44.677Z,12.68
2023-04-13T22:59:11.079Z,12.73
2023-04-13T23:01:37.610Z,12.73
2023-04-13T23:04:04.762Z,12.75
2023-04-13T23:06:31.357Z,12.77
2023-04-13T23:08:57.922Z,12.74
2023-04-13T23:11:24.445Z,12.72
2023-04-13T23:13:54.336Z,12.54
2023-04-13T23:16:20.904Z,12.68
2023-04-13T23:18:47.425Z,12.62
2023-04-13T23:21:13.842Z,12.65
2023-04-13T23:23:40.500Z,12.66
2023-04-13T23:26:07.130Z,12.64
2023-04-13T23:28:33.546Z,12.29
2023-04-13T23:31:06.875Z,11.74
2023-04-13T23:33:36.330Z,11.93
2023-04-13T23:36:03.531Z,12.41
2023-04-13T23:38:30.775Z,12.50
2023-04-13T23:40:57.865Z,12.54
2023-04-13T23:43:24.686Z,12.32
2023-04-13T23:45:52.196Z,12.52
2023-04-13T23:48:19.970Z,12.38
2023-04-13T23:50:47.200Z,11.96
2023-04-13T23:53:14.006Z,12.19
2023-04-13T23:55:40.926Z,12.41
2023-04-13T23:58:07.369Z,11.30
